PWSweather.com
Personal Weather Stations
Station Observations
SWHWX01
St AppolinardFR 38160

St AppolinardFR 38160

Lat: 45.191, Lon: 5.268

Elevation: 1460

Station Type: Davis Vantage Pro2 Plus

www.sweetwebhome.com/?show=wxindex

High Low Average
Temperature 38.3°F3.5°C 25.2°F-3.8°C 31.9°F-0.1°C
Dew Point 28.3°F-2.1°C 20.5°F-6.4°C 24.0°F-4.4°C
Winds 10.4 mph 16.7 kmh Calm Calm 4.0 mph SW6.4 kmh SW
Wind Gusts 15.0 mph24.1 kmh -- 6.0 mph9.7 kmh
Humidity 87% 52% 73%
Pressure 30.09 in1019.0 mb 29.85 in1010.8 mb -
Precipitation 0.00 in0.0 mm - -
Hour Temp Dew Point Humidity Winds Wind Gusts Pressure Precip Precip Rate Daily Precip Total
12:00 AM 29.8°F-1.2°C 25.8°F-3.4°C 85% 10.4 mph NNW16.7 kmh NNW 13.0 mph20.9 kmh 30.09 in1019.0 mb - 0.00 in0.0 mm 0.00 in0.0 mm
12:30 AM 29.6°F-1.3°C 25.6°F-3.6°C 85% 4.7 mph N7.6 kmh N 7.0 mph11.3 kmh 30.09 in1019.0 mb - 0.00 in0.0 mm 0.00 in0.0 mm
01:00 AM 29.2°F-1.6°C 25.3°F-3.7°C 85% 1.7 mph N2.7 kmh N 5.0 mph8.0 kmh 30.09 in1019.0 mb - 0.00 in0.0 mm 0.00 in0.0 mm
01:30 AM 28.7°F-1.8°C 24.8°F-4.0°C 85% 3.0 mph N4.8 kmh N 7.0 mph11.3 kmh 30.09 in1019.0 mb - 0.00 in0.0 mm 0.00 in0.0 mm
02:00 AM 28.5°F-1.9°C 24.3°F-4.3°C 84% 2.4 mph NNE3.9 kmh NNE 3.0 mph4.8 kmh 30.09 in1019.0 mb - 0.00 in0.0 mm 0.00 in0.0 mm
02:30 AM 28.0°F-2.2°C 24.1°F-4.4°C 85% 3.3 mph N5.3 kmh N 5.0 mph8.0 kmh 30.08 in1018.6 mb - 0.00 in0.0 mm 0.00 in0.0 mm
03:00 AM 28.0°F-2.2°C 23.8°F-4.6°C 84% 2.8 mph N4.5 kmh N 5.0 mph8.0 kmh 30.08 in1018.6 mb - 0.00 in0.0 mm 0.00 in0.0 mm
03:30 AM 27.4°F-2.6°C 23.2°F-4.9°C 84% 4.6 mph N7.4 kmh N 7.0 mph11.3 kmh 30.07 in1018.3 mb - 0.00 in0.0 mm 0.00 in0.0 mm
04:00 AM 27.2°F-2.7°C 23.0°F-5.0°C 84% 1.7 mph NNW2.7 kmh NNW 3.0 mph4.8 kmh 30.07 in1018.3 mb - 0.00 in0.0 mm 0.00 in0.0 mm
04:30 AM 27.1°F-2.7°C 22.9°F-5.1°C 84% 2.8 mph N4.5 kmh N 6.0 mph9.7 kmh 30.06 in1017.9 mb - 0.00 in0.0 mm 0.00 in0.0 mm
05:00 AM 27.2°F-2.7°C 22.4°F-5.3°C 82% 3.9 mph N6.3 kmh N 5.0 mph8.0 kmh 30.06 in1017.9 mb - 0.00 in0.0 mm 0.00 in0.0 mm
05:30 AM 26.9°F-2.8°C 21.8°F-5.7°C 81% 2.5 mph NNW4.0 kmh NNW 4.0 mph6.4 kmh 30.06 in1017.9 mb - 0.00 in0.0 mm 0.00 in0.0 mm
06:00 AM 27.0°F-2.8°C 21.7°F-5.7°C 80% 2.6 mph NNW4.2 kmh NNW 4.0 mph6.4 kmh 30.05 in1017.6 mb - 0.00 in0.0 mm 0.00 in0.0 mm
06:30 AM 26.6°F-3.0°C 21.3°F-5.9°C 80% 3.4 mph NW5.5 kmh NW 5.0 mph8.0 kmh 30.05 in1017.6 mb - 0.00 in0.0 mm 0.00 in0.0 mm
07:00 AM 25.6°F-3.6°C 20.9°F-6.2°C 82% 5.2 mph NW8.4 kmh NW 6.0 mph9.7 kmh 30.04 in1017.3 mb - 0.00 in0.0 mm 0.00 in0.0 mm
07:30 AM 25.2°F-3.8°C 20.7°F-6.3°C 83% 2.1 mph NW3.4 kmh NW 5.0 mph8.0 kmh 30.03 in1016.9 mb - 0.00 in0.0 mm 0.00 in0.0 mm
08:00 AM 26.0°F-3.3°C 21.5°F-5.8°C 83% 2.6 mph NW4.2 kmh NW 3.0 mph4.8 kmh 30.04 in1017.3 mb - 0.00 in0.0 mm 0.00 in0.0 mm
08:30 AM 26.7°F-2.9°C 22.2°F-5.4°C 83% 0.3 mph NW0.5 kmh NW 2.0 mph3.2 kmh 30.04 in1017.3 mb - 0.00 in0.0 mm 0.00 in0.0 mm
09:00 AM 28.1°F-2.2°C 23.0°F-5.0°C 81% 1.2 mph NE1.9 kmh NE 2.0 mph3.2 kmh 30.03 in1016.9 mb - 0.00 in0.0 mm 0.00 in0.0 mm
09:30 AM 29.8°F-1.2°C 24.4°F-4.2°C 80% 3.4 mph NE5.5 kmh NE 4.0 mph6.4 kmh 30.01 in1016.3 mb - 0.00 in0.0 mm 0.00 in0.0 mm
10:00 AM 30.5°F-0.8°C 24.1°F-4.4°C 77% 6.6 mph E10.6 kmh E 9.0 mph14.5 kmh 30.00 in1015.9 mb - 0.00 in0.0 mm 0.00 in0.0 mm
10:30 AM 32.6°F0.3°C 25.5°F-3.6°C 75% 4.6 mph E7.4 kmh E 5.0 mph8.0 kmh 29.99 in1015.6 mb - 0.00 in0.0 mm 0.00 in0.0 mm
11:00 AM 32.9°F0.5°C 24.5°F-4.2°C 71% 5.0 mph E8.0 kmh E 6.0 mph9.7 kmh 29.98 in1015.2 mb - 0.00 in0.0 mm 0.00 in0.0 mm
11:30 AM 33.7°F0.9°C 23.2°F-4.9°C 65% 1.6 mph E2.6 kmh E 6.0 mph9.7 kmh 29.97 in1014.9 mb - 0.00 in0.0 mm 0.00 in0.0 mm
12:00 PM 34.7°F1.5°C 23.4°F-4.8°C 63% 3.7 mph SSE6.0 kmh SSE 4.0 mph6.4 kmh 29.96 in1014.6 mb - 0.00 in0.0 mm 0.00 in0.0 mm
12:30 PM 36.2°F2.3°C 20.7°F-6.3°C 53% 3.0 mph SSE4.8 kmh SSE 6.0 mph9.7 kmh 29.94 in1013.9 mb - 0.00 in0.0 mm 0.00 in0.0 mm
01:00 PM 36.5°F2.5°C 20.5°F-6.4°C 52% 2.6 mph SSE4.2 kmh SSE 4.0 mph6.4 kmh 29.92 in1013.2 mb - 0.00 in0.0 mm 0.00 in0.0 mm
01:30 PM 37.1°F2.8°C 22.4°F-5.3°C 55% 5.4 mph SSW8.7 kmh SSW 6.0 mph9.7 kmh 29.91 in1012.9 mb - 0.00 in0.0 mm 0.00 in0.0 mm
02:00 PM 37.3°F2.9°C 22.2°F-5.4°C 54% 1.9 mph S3.1 kmh S 5.0 mph8.0 kmh 29.89 in1012.2 mb - 0.00 in0.0 mm 0.00 in0.0 mm
02:30 PM 38.3°F3.5°C 23.1°F-4.9°C 54% 1.1 mph S1.8 kmh S 3.0 mph4.8 kmh 29.87 in1011.5 mb - 0.00 in0.0 mm 0.00 in0.0 mm
03:00 PM 38.2°F3.4°C 23.9°F-4.5°C 56% 3.4 mph S5.5 kmh S 4.0 mph6.4 kmh 29.86 in1011.2 mb - 0.00 in0.0 mm 0.00 in0.0 mm
03:30 PM 37.7°F3.2°C 23.4°F-4.8°C 56% 4.7 mph SW7.6 kmh SW 7.0 mph11.3 kmh 29.86 in1011.2 mb - 0.00 in0.0 mm 0.00 in0.0 mm
04:00 PM 36.8°F2.7°C 23.4°F-4.8°C 58% 4.5 mph WSW7.2 kmh WSW 8.0 mph12.9 kmh 29.85 in1010.8 mb - 0.00 in0.0 mm 0.00 in0.0 mm
04:30 PM 36.2°F2.3°C 24.0°F-4.4°C 61% 3.3 mph WSW5.3 kmh WSW 5.0 mph8.0 kmh 29.85 in1010.8 mb - 0.00 in0.0 mm 0.00 in0.0 mm
05:00 PM 35.8°F2.1°C 24.4°F-4.2°C 63% 2.9 mph WSW4.7 kmh WSW 4.0 mph6.4 kmh 29.85 in1010.8 mb - 0.00 in0.0 mm 0.00 in0.0 mm
05:30 PM 35.6°F2.0°C 25.0°F-3.9°C 65% 1.4 mph WSW2.3 kmh WSW 2.0 mph3.2 kmh 29.85 in1010.8 mb - 0.00 in0.0 mm 0.00 in0.0 mm
06:00 PM 35.4°F1.9°C 25.2°F-3.8°C 66% 0.1 mph WSW0.2 kmh WSW 1.0 mph1.6 kmh 29.86 in1011.2 mb - 0.00 in0.0 mm 0.00 in0.0 mm
06:30 PM 36.3°F2.4°C 23.8°F-4.6°C 60% 7.1 mph WSW11.4 kmh WSW 14.0 mph22.5 kmh 29.86 in1011.2 mb - 0.00 in0.0 mm 0.00 in0.0 mm
07:00 PM 31.8°F-0.1°C 28.3°F-2.1°C 87% 7.3 mph S11.7 kmh S 15.0 mph24.1 kmh 29.88 in1011.9 mb - 0.00 in0.0 mm 0.00 in0.0 mm
07:30 PM 32.5°F0.3°C 27.9°F-2.3°C 83% 5.0 mph S8.0 kmh S 6.0 mph9.7 kmh 29.87 in1011.5 mb - 0.00 in0.0 mm 0.00 in0.0 mm
08:00 PM 34.1°F1.2°C 25.7°F-3.5°C 71% 3.1 mph SW5.0 kmh SW 4.0 mph6.4 kmh 29.88 in1011.9 mb - 0.00 in0.0 mm 0.00 in0.0 mm
08:30 PM 34.5°F1.4°C 24.7°F-4.1°C 67% 9.3 mph S15.0 kmh S 9.0 mph14.5 kmh 29.89 in1012.2 mb - 0.00 in0.0 mm 0.00 in0.0 mm
09:00 PM 34.1°F1.2°C 25.3°F-3.7°C 70% 7.5 mph S12.1 kmh S 15.0 mph24.1 kmh 29.89 in1012.2 mb - 0.00 in0.0 mm 0.00 in0.0 mm
09:30 PM 34.3°F1.3°C 26.2°F-3.2°C 72% 8.1 mph SSE13.0 kmh SSE 11.0 mph17.7 kmh 29.88 in1011.9 mb - 0.00 in0.0 mm 0.00 in0.0 mm
10:00 PM 33.8°F1.0°C 27.0°F-2.8°C 76% 3.7 mph SE6.0 kmh SE 5.0 mph8.0 kmh 29.88 in1011.9 mb - 0.00 in0.0 mm 0.00 in0.0 mm
10:30 PM 33.7°F0.9°C 27.0°F-2.8°C 76% Calm Calm -- 29.87 in1011.5 mb - 0.00 in0.0 mm 0.00 in0.0 mm
11:00 PM 33.8°F1.0°C 27.0°F-2.8°C 76% Calm Calm -- 29.87 in1011.5 mb - 0.00 in0.0 mm 0.00 in0.0 mm
11:30 PM 33.9°F1.1°C 26.8°F-2.9°C 75% 2.8 mph SE4.5 kmh SE 5.0 mph8.0 kmh 29.88 in1011.9 mb - 0.00 in0.0 mm 0.00 in0.0 mm